EDDR/SCN METAR and TAF weather

Enter ICAO airport designator
Station Type Date Time Source
EDDR METAR 2019/06/26 21:50 UTC NOAA

EDDR 262150Z 04010KT 360V060 CAVOK 27/19 Q1023


Station Type Date Time Source
EDDR Decoded METAR 2019/06/26 21:50 UTC NOAA

Saarbruecken / Ensheim, Germany (EDDR) 49-13N 007-07E 320M
Jun 26, 2019 - 05:50 PM EDT / 2019.06.26 2150 UTC
Wind: from the NE (040 degrees) at 12 MPH (10 KT) (direction variable):0
Visibility: greater than 7 mile(s):0
Temperature: 80 F (27 C)
Dew Point: 66 F (19 C)
Relative Humidity: 61%
Pressure (altimeter): 30.21 in. Hg (1023 hPa)
ob: EDDR 262150Z 04010KT 360V060 CAVOK 27/19 Q1023
cycle: 22

Station Type Date Time Source
EDDR TAF 2019/06/26 18:27 UTC NOAA

TAF EDDR 261700Z 2618/2718 04010KT CAVOK

Example: see airport list